createdAt,value
2023-01-23T00:01:36.206Z,61.70
2023-01-23T00:04:06.251Z,61.88
2023-01-23T00:06:34.204Z,61.42
2023-01-23T00:09:02.308Z,61.97
2023-01-23T00:11:32.180Z,62.30
2023-01-23T00:14:01.693Z,62.02
2023-01-23T00:16:32.543Z,61.97
2023-01-23T00:19:00.727Z,61.93
2023-01-23T00:21:31.275Z,62.23
2023-01-23T00:24:01.497Z,62.03
2023-01-23T00:26:32.761Z,61.69
2023-01-23T00:29:00.905Z,62.04
2023-01-23T00:31:30.885Z,62.29
2023-01-23T00:34:01.710Z,62.02
2023-01-23T00:36:32.841Z,62.03
2023-01-23T00:39:01.212Z,62.17
2023-01-23T00:41:29.260Z,62.06
2023-01-23T00:43:57.443Z,62.19
2023-01-23T00:46:25.672Z,62.27
2023-01-23T00:48:53.629Z,62.11
2023-01-23T00:51:22.123Z,61.81
2023-01-23T00:53:51.570Z,62.15
2023-01-23T00:56:19.605Z,61.80
2023-01-23T00:58:48.524Z,62.28
2023-01-23T01:01:17.492Z,61.50
2023-01-23T01:03:46.443Z,61.80
2023-01-23T01:06:16.458Z,61.78
2023-01-23T01:08:44.546Z,61.29
2023-01-23T01:11:14.264Z,61.85
2023-01-23T01:13:43.079Z,61.73
2023-01-23T01:16:11.498Z,61.63
2023-01-23T01:18:40.239Z,61.29
2023-01-23T01:21:09.639Z,61.75
2023-01-23T01:23:38.555Z,61.77
2023-01-23T01:26:08.139Z,61.78
2023-01-23T01:28:39.370Z,61.99
2023-01-23T01:31:09.689Z,61.62
2023-01-23T01:33:38.494Z,61.80
2023-01-23T01:36:10.190Z,61.42
2023-01-23T01:38:38.570Z,61.24
2023-01-23T01:41:07.456Z,61.33
2023-01-23T01:43:37.572Z,61.26
2023-01-23T01:46:16.982Z,60.94
2023-01-23T01:48:49.330Z,61.27
2023-01-23T01:51:22.661Z,61.34
2023-01-23T01:53:54.966Z,62.32
2023-01-23T01:56:23.762Z,62.17
2023-01-23T01:58:54.724Z,62.34
2023-01-23T02:01:22.777Z,61.98
2023-01-23T02:03:52.766Z,61.73
2023-01-23T02:06:21.142Z,61.62
2023-01-23T02:08:57.027Z,61.73
2023-01-23T02:11:25.409Z,61.87
2023-01-23T02:13:56.746Z,61.60
2023-01-23T02:16:29.196Z,61.56
2023-01-23T02:19:01.915Z,61.79
2023-01-23T02:21:30.322Z,61.51
2023-01-23T02:24:12.996Z,61.32
2023-01-23T02:26:44.366Z,61.31
2023-01-23T02:29:14.812Z,61.29
2023-01-23T02:31:53.075Z,61.55
2023-01-23T02:34:22.806Z,61.87
2023-01-23T02:36:51.945Z,61.68
2023-01-23T02:39:21.625Z,61.51
2023-01-23T02:41:56.152Z,61.31
2023-01-23T02:44:35.265Z,61.56
2023-01-23T02:47:11.745Z,61.37
2023-01-23T02:49:39.906Z,61.45
2023-01-23T02:52:09.735Z,61.55
2023-01-23T02:54:39.641Z,61.29
2023-01-23T02:57:09.962Z,61.23
2023-01-23T02:59:57.311Z,61.65
2023-01-23T03:02:27.043Z,61.12
2023-01-23T03:04:55.236Z,61.38
2023-01-23T03:07:23.511Z,61.52
2023-01-23T03:09:52.089Z,61.33
2023-01-23T03:12:21.966Z,61.04
2023-01-23T03:14:54.324Z,60.73
2023-01-23T03:17:23.207Z,61.61
2023-01-23T03:19:51.170Z,61.82
2023-01-23T03:22:19.155Z,61.76
2023-01-23T03:24:47.298Z,61.52
2023-01-23T03:27:15.236Z,61.17
2023-01-23T03:30:06.580Z,61.48
2023-01-23T03:32:34.774Z,61.26
2023-01-23T03:35:03.198Z,62.02
2023-01-23T03:37:31.290Z,62.15
2023-01-23T03:40:17.759Z,61.95
2023-01-23T03:42:45.911Z,61.52
2023-01-23T03:45:18.971Z,61.83
2023-01-23T03:47:47.294Z,61.72
2023-01-23T03:50:16.642Z,62.14
2023-01-23T03:52:45.906Z,61.49
2023-01-23T03:55:15.494Z,61.93
2023-01-23T03:57:45.145Z,61.70
2023-01-23T04:00:21.359Z,61.65
2023-01-23T04:02:56.980Z,61.89
2023-01-23T04:05:25.065Z,61.57
2023-01-23T04:07:53.020Z,61.35
2023-01-23T04:10:21.690Z,61.60
2023-01-23T04:12:54.860Z,61.67
2023-01-23T04:15:24.881Z,61.78
2023-01-23T04:17:57.225Z,61.87
2023-01-23T04:20:27.060Z,61.71
2023-01-23T04:22:56.852Z,62.18
2023-01-23T04:25:25.319Z,62.13
2023-01-23T04:27:53.878Z,61.69
2023-01-23T04:30:22.572Z,61.56
2023-01-23T04:32:52.336Z,61.81
2023-01-23T04:35:21.422Z,61.85
2023-01-23T04:37:49.408Z,61.64
2023-01-23T04:40:20.073Z,61.42
2023-01-23T04:42:55.240Z,61.04
2023-01-23T04:45:35.780Z,61.67
2023-01-23T04:48:20.216Z,62.10
2023-01-23T04:50:49.905Z,61.45
2023-01-23T04:53:18.252Z,61.43
2023-01-23T04:55:49.328Z,61.41
2023-01-23T04:58:20.248Z,61.34
2023-01-23T05:00:49.047Z,61.64
2023-01-23T05:03:20.183Z,61.10
2023-01-23T05:05:49.552Z,61.33
2023-01-23T05:08:17.610Z,61.58
2023-01-23T05:10:52.538Z,61.93
2023-01-23T05:13:21.894Z,61.87
2023-01-23T05:15:50.211Z,61.38
2023-01-23T05:18:20.566Z,61.61
2023-01-23T05:20:49.452Z,61.35
2023-01-23T05:23:17.474Z,61.36
2023-01-23T05:25:52.264Z,61.10
2023-01-23T05:28:20.927Z,61.15
2023-01-23T05:30:53.570Z,60.94
2023-01-23T05:33:30.299Z,61.56
2023-01-23T05:36:00.400Z,61.29
2023-01-23T05:38:28.903Z,61.75
2023-01-23T05:40:57.116Z,61.89
2023-01-23T05:43:44.413Z,61.43
2023-01-23T05:46:37.676Z,61.46
2023-01-23T05:49:07.261Z,61.96
2023-01-23T05:51:35.580Z,61.34
2023-01-23T05:54:04.589Z,61.87
2023-01-23T05:56:34.589Z,62.15
2023-01-23T05:59:21.280Z,62.03
2023-01-23T06:02:15.579Z,62.04
2023-01-23T06:05:04.185Z,62.15
2023-01-23T06:08:01.808Z,61.81
2023-01-23T06:10:31.076Z,61.81
2023-01-23T06:12:59.152Z,61.85
2023-01-23T06:15:27.127Z,61.49
2023-01-23T06:17:56.423Z,61.56
2023-01-23T06:20:27.883Z,61.48
2023-01-23T06:22:55.947Z,61.76
2023-01-23T06:25:24.931Z,62.12
2023-01-23T06:27:55.198Z,62.08
2023-01-23T06:30:25.403Z,61.98
2023-01-23T06:32:53.712Z,61.45
2023-01-23T06:35:29.977Z,61.83
2023-01-23T06:37:58.571Z,61.60
2023-01-23T06:40:27.125Z,62.12
2023-01-23T06:43:13.833Z,61.87
2023-01-23T06:45:45.373Z,62.22
2023-01-23T06:48:14.469Z,61.61
2023-01-23T06:50:45.497Z,61.61
2023-01-23T06:53:15.913Z,61.24
2023-01-23T06:55:45.939Z,61.75
2023-01-23T06:58:16.084Z,62.12
2023-01-23T07:00:45.919Z,61.66
2023-01-23T07:03:32.062Z,61.47
2023-01-23T07:06:07.091Z,61.71
2023-01-23T07:08:35.910Z,61.95
2023-01-23T07:11:05.001Z,61.91
2023-01-23T07:13:33.370Z,61.85
2023-01-23T07:16:01.827Z,62.05
2023-01-23T07:18:30.549Z,61.82
2023-01-23T07:20:59.312Z,61.67
2023-01-23T07:23:28.733Z,62.18
2023-01-23T07:26:00.649Z,62.04
2023-01-23T07:28:28.730Z,61.83
2023-01-23T07:30:59.179Z,61.80
2023-01-23T07:33:27.523Z,61.64
2023-01-23T07:35:56.584Z,61.98
2023-01-23T07:38:25.468Z,62.00
2023-01-23T07:41:00.175Z,62.02
2023-01-23T07:43:28.734Z,61.14
2023-01-23T07:45:59.824Z,61.39
2023-01-23T07:48:28.264Z,61.62
2023-01-23T07:50:56.817Z,61.34
2023-01-23T07:53:24.987Z,61.15
2023-01-23T07:55:54.863Z,61.09
2023-01-23T07:58:23.672Z,61.23
2023-01-23T08:00:52.221Z,61.41
2023-01-23T08:03:21.060Z,61.51
2023-01-23T08:05:52.592Z,61.11
2023-01-23T08:08:21.819Z,61.01
2023-01-23T08:10:51.064Z,61.24
2023-01-23T08:13:28.388Z,61.32
2023-01-23T08:16:04.344Z,61.17
2023-01-23T08:18:33.198Z,60.96
2023-01-23T08:21:03.191Z,61.29
2023-01-23T08:23:32.700Z,61.10
2023-01-23T08:26:03.370Z,61.21
2023-01-23T08:28:33.370Z,61.37
2023-01-23T08:31:02.932Z,61.21
2023-01-23T08:33:33.229Z,60.59
2023-01-23T08:36:02.271Z,60.73
2023-01-23T08:38:31.765Z,60.88
2023-01-23T08:41:03.361Z,60.46
2023-01-23T08:43:34.006Z,59.98
2023-01-23T08:46:03.152Z,59.90
2023-01-23T08:48:33.195Z,59.85
2023-01-23T08:51:04.112Z,60.15
2023-01-23T08:53:32.997Z,60.12
2023-01-23T08:56:02.272Z,59.98
2023-01-23T08:58:32.342Z,59.77
2023-01-23T09:01:02.058Z,60.14
2023-01-23T09:03:30.183Z,59.82
2023-01-23T09:06:02.457Z,60.32
2023-01-23T09:08:30.691Z,59.59
2023-01-23T09:11:02.649Z,59.15
2023-01-23T09:13:32.357Z,58.65
2023-01-23T09:16:01.158Z,58.69
2023-01-23T09:18:30.233Z,58.66
2023-01-23T09:21:00.051Z,58.75
2023-01-23T09:23:28.390Z,59.21
2023-01-23T09:26:04.762Z,59.41
2023-01-23T09:28:34.526Z,58.88
2023-01-23T09:31:07.448Z,58.96
2023-01-23T09:33:35.636Z,58.60
2023-01-23T09:36:04.444Z,58.26
2023-01-23T09:38:34.459Z,58.19
2023-01-23T09:41:10.337Z,58.64
2023-01-23T09:43:46.080Z,57.80
2023-01-23T09:46:20.233Z,57.58
2023-01-23T09:48:52.176Z,57.06
2023-01-23T09:51:26.817Z,57.79
2023-01-23T09:53:59.615Z,57.57
2023-01-23T09:56:35.388Z,57.42
2023-01-23T09:59:14.494Z,57.35
2023-01-23T10:01:43.210Z,57.45
2023-01-23T10:04:13.523Z,57.39
2023-01-23T10:07:02.484Z,57.18
2023-01-23T10:09:43.977Z,57.68
2023-01-23T10:12:25.609Z,57.70
2023-01-23T10:15:09.314Z,56.97
2023-01-23T10:17:45.366Z,57.01
2023-01-23T10:20:45.927Z,56.69
2023-01-23T10:23:30.656Z,57.29
2023-01-23T10:26:00.105Z,57.56
2023-01-23T10:28:35.011Z,57.80
2023-01-23T10:31:11.496Z,57.53
2023-01-23T10:33:46.771Z,57.67
2023-01-23T10:36:24.041Z,57.36
2023-01-23T10:38:59.811Z,57.16
2023-01-23T10:41:28.443Z,57.57
2023-01-23T10:43:59.781Z,57.81
2023-01-23T10:46:35.745Z,57.85
2023-01-23T10:49:05.375Z,57.54
2023-01-23T10:51:48.620Z,57.89
2023-01-23T10:54:31.697Z,58.19
2023-01-23T10:57:03.491Z,58.47
2023-01-23T10:59:35.892Z,58.14
2023-01-23T11:02:22.703Z,58.59
2023-01-23T11:04:52.969Z,58.39
2023-01-23T11:07:24.102Z,58.78
2023-01-23T11:09:55.778Z,57.97
2023-01-23T11:12:25.901Z,58.56
2023-01-23T11:15:13.669Z,58.85
2023-01-23T11:17:44.275Z,59.15
2023-01-23T11:20:26.061Z,59.26
2023-01-23T11:23:06.544Z,59.74
2023-01-23T11:25:39.173Z,59.30
2023-01-23T11:28:23.749Z,59.32
2023-01-23T11:31:12.327Z,58.42
2023-01-23T11:33:52.600Z,58.93
2023-01-23T11:36:39.642Z,59.44
2023-01-23T11:39:20.068Z,59.33
2023-01-23T11:41:48.882Z,58.71
2023-01-23T11:44:21.116Z,58.67
2023-01-23T11:47:18.049Z,59.18
2023-01-23T11:50:13.861Z,59.41
2023-01-23T11:52:50.608Z,58.56
2023-01-23T11:55:35.538Z,58.59
2023-01-23T11:58:17.334Z,58.20
2023-01-23T12:00:50.028Z,58.85
2023-01-23T12:04:06.185Z,58.35
2023-01-23T12:07:03.674Z,58.80
2023-01-23T12:09:39.474Z,57.62
2023-01-23T12:12:21.178Z,56.96
2023-01-23T12:15:01.482Z,57.30
2023-01-23T12:17:40.320Z,56.92
2023-01-23T12:20:27.187Z,55.66
2023-01-23T12:23:16.706Z,55.62
2023-01-23T12:25:53.355Z,56.23
2023-01-23T12:28:40.791Z,56.54
2023-01-23T12:31:24.702Z,56.26
2023-01-23T12:34:10.667Z,56.76
2023-01-23T12:37:11.752Z,56.11
2023-01-23T12:40:00.737Z,56.01
2023-01-23T12:42:33.387Z,56.36
2023-01-23T12:45:14.552Z,55.90
2023-01-23T12:47:49.678Z,56.55
2023-01-23T12:50:22.640Z,54.86
2023-01-23T12:52:54.107Z,54.36
2023-01-23T12:55:27.098Z,54.76
2023-01-23T12:58:08.009Z,55.00
2023-01-23T13:00:47.585Z,55.45
2023-01-23T13:03:46.030Z,55.43
2023-01-23T13:06:30.935Z,55.56
2023-01-23T13:09:12.952Z,55.62
2023-01-23T13:11:59.818Z,55.75
2023-01-23T13:15:03.511Z,54.97
2023-01-23T13:17:37.775Z,54.71
2023-01-23T13:20:43.001Z,53.83
2023-01-23T13:23:31.614Z,53.95
2023-01-23T13:26:32.842Z,55.26
2023-01-23T13:29:07.737Z,55.16
2023-01-23T13:31:45.261Z,55.71
2023-01-23T13:34:43.594Z,54.30
2023-01-23T13:37:51.229Z,55.18
2023-01-23T13:40:26.623Z,55.19
2023-01-23T13:42:55.550Z,55.17
2023-01-23T13:45:29.116Z,55.65
2023-01-23T14:24:45.057Z,55.97
2023-01-23T14:27:28.890Z,56.22
2023-01-23T14:29:59.545Z,56.92
2023-01-23T14:32:31.090Z,56.95
2023-01-23T14:35:01.575Z,56.62
2023-01-23T14:37:31.774Z,57.17
2023-01-23T14:40:11.641Z,57.46
2023-01-23T14:42:41.580Z,56.55
2023-01-23T14:45:15.352Z,56.27
2023-01-23T14:47:48.914Z,56.25
2023-01-23T14:50:25.777Z,56.70
2023-01-23T14:52:59.688Z,56.99
2023-01-23T14:55:30.476Z,56.71
2023-01-23T14:58:02.015Z,56.88
2023-01-23T15:00:31.554Z,57.11
2023-01-23T15:02:59.585Z,57.35
2023-01-23T15:05:29.581Z,56.87
2023-01-23T15:07:59.271Z,56.63
2023-01-23T15:10:30.122Z,56.74
2023-01-23T15:13:02.138Z,55.54
2023-01-23T15:15:33.521Z,56.14
2023-01-23T15:18:03.547Z,55.67
2023-01-23T15:20:38.449Z,56.25
2023-01-23T15:23:28.234Z,55.51
2023-01-23T15:26:24.706Z,56.26
2023-01-23T15:28:55.191Z,56.18
2023-01-23T15:31:30.264Z,56.71
2023-01-23T15:34:18.240Z,56.96
2023-01-23T15:36:53.675Z,57.49
2023-01-23T15:39:24.952Z,57.19
2023-01-23T15:41:54.291Z,56.85
2023-01-23T15:44:26.411Z,57.10
2023-01-23T15:46:56.693Z,56.89
2023-01-23T15:49:26.498Z,56.82
2023-01-23T15:51:58.378Z,57.08
2023-01-23T15:54:33.236Z,56.25
2023-01-23T15:57:09.299Z,56.23
2023-01-23T15:59:38.339Z,56.85
2023-01-23T16:02:12.850Z,57.23
2023-01-23T16:04:43.777Z,56.94
2023-01-23T16:07:23.965Z,57.00
2023-01-23T16:09:55.071Z,57.09
2023-01-23T16:12:28.733Z,56.27
2023-01-23T16:14:56.934Z,55.62
2023-01-23T16:17:25.338Z,55.71
2023-01-23T16:19:54.395Z,56.18
2023-01-23T16:22:29.362Z,56.44
2023-01-23T16:24:58.788Z,56.37
2023-01-23T16:27:28.501Z,56.42
2023-01-23T16:29:57.406Z,55.89
2023-01-23T16:32:26.081Z,55.91
2023-01-23T16:34:54.636Z,56.97
2023-01-23T16:37:23.060Z,56.74
2023-01-23T16:39:52.792Z,56.72
2023-01-23T16:42:23.669Z,56.39
2023-01-23T16:44:52.153Z,56.46
2023-01-23T16:47:20.277Z,56.46
2023-01-23T16:49:53.548Z,56.59
2023-01-23T16:52:26.910Z,56.83
2023-01-23T16:54:56.436Z,57.03
2023-01-23T16:57:26.582Z,56.47
2023-01-23T16:59:56.357Z,56.46
2023-01-23T17:02:32.173Z,56.76
2023-01-23T17:05:00.308Z,56.69
2023-01-23T17:07:28.232Z,56.45
2023-01-23T17:09:58.404Z,56.19
2023-01-23T17:12:29.552Z,56.22
2023-01-23T17:14:58.395Z,56.37
2023-01-23T17:17:33.299Z,56.65
2023-01-23T17:20:02.806Z,56.36
2023-01-23T17:22:35.854Z,56.03
2023-01-23T17:25:07.860Z,56.37
2023-01-23T17:27:44.557Z,56.64
2023-01-23T17:30:18.687Z,56.76
2023-01-23T17:32:49.830Z,56.88
2023-01-23T17:35:23.031Z,56.58
2023-01-23T17:37:51.221Z,56.61
2023-01-23T17:40:22.268Z,56.42
2023-01-23T17:42:50.919Z,56.38
2023-01-23T17:45:22.395Z,56.64
2023-01-23T17:47:52.388Z,56.77
2023-01-23T17:50:23.059Z,56.23
2023-01-23T17:52:52.736Z,56.69
2023-01-23T17:55:25.532Z,56.57
2023-01-23T17:57:53.709Z,56.67
2023-01-23T18:00:22.824Z,56.29
2023-01-23T18:02:57.204Z,56.83
2023-01-23T18:05:27.086Z,56.47
2023-01-23T18:07:55.734Z,56.85
2023-01-23T18:10:29.771Z,56.52
2023-01-23T18:13:10.161Z,56.16
2023-01-23T18:15:44.130Z,56.55
2023-01-23T18:18:23.925Z,56.74
2023-01-23T18:20:54.677Z,56.19
2023-01-23T18:23:24.130Z,55.87
2023-01-23T18:26:02.206Z,55.62
2023-01-23T18:28:40.707Z,55.53
2023-01-23T18:31:14.883Z,55.30
2023-01-23T18:34:05.944Z,55.19
2023-01-23T18:36:46.475Z,54.71
2023-01-23T18:39:48.607Z,55.16
2023-01-23T18:42:23.270Z,55.43
2023-01-23T18:44:57.043Z,55.19
2023-01-23T18:47:25.878Z,55.35
2023-01-23T18:49:54.663Z,54.90
2023-01-23T18:52:28.285Z,54.83
2023-01-23T18:55:07.118Z,54.59
2023-01-23T18:57:51.618Z,54.80
2023-01-23T19:00:25.099Z,54.25
2023-01-23T19:03:02.035Z,55.22
2023-01-23T19:05:33.558Z,55.10
2023-01-23T19:08:03.195Z,54.89
2023-01-23T19:10:47.934Z,55.41
2023-01-23T19:13:22.953Z,55.39
2023-01-23T19:16:03.062Z,54.83
2023-01-23T19:18:44.196Z,55.34
2023-01-23T19:21:17.022Z,54.99
2023-01-23T19:23:51.769Z,55.40
2023-01-23T19:26:20.461Z,55.50
2023-01-23T19:28:51.716Z,54.89
2023-01-23T19:31:25.030Z,54.51
2023-01-23T19:33:53.684Z,54.27
2023-01-23T19:36:22.878Z,53.90
2023-01-23T19:38:52.624Z,54.34
2023-01-23T19:41:22.628Z,54.42
2023-01-23T19:43:53.596Z,54.57
2023-01-23T19:46:24.527Z,54.82
2023-01-23T19:48:53.122Z,54.58
2023-01-23T19:51:24.255Z,54.81
2023-01-23T19:53:54.675Z,55.08
2023-01-23T19:56:26.970Z,54.74
2023-01-23T19:59:01.200Z,54.90
2023-01-23T20:01:36.077Z,54.66
2023-01-23T20:04:05.281Z,54.72
2023-01-23T20:06:34.502Z,54.90
2023-01-23T20:09:03.832Z,54.73
2023-01-23T20:11:31.966Z,54.72
2023-01-23T20:14:01.404Z,54.84
2023-01-23T20:16:29.884Z,54.73
2023-01-23T20:18:58.063Z,54.45
2023-01-23T20:21:27.191Z,53.79
2023-01-23T20:23:55.364Z,54.56
2023-01-23T20:26:24.829Z,55.12
2023-01-23T20:28:54.349Z,55.21
2023-01-23T20:31:25.255Z,55.14
2023-01-23T20:33:54.926Z,54.92
2023-01-23T20:36:23.535Z,55.28
2023-01-23T20:38:52.061Z,55.17
2023-01-23T20:41:21.918Z,54.39
2023-01-23T20:43:50.878Z,54.71
2023-01-23T20:46:20.361Z,55.44
2023-01-23T20:48:50.000Z,55.85
2023-01-23T20:51:18.270Z,56.02
2023-01-23T20:53:47.206Z,55.75
2023-01-23T20:56:17.291Z,55.65
2023-01-23T20:59:04.661Z,55.16
2023-01-23T21:01:54.723Z,55.24
2023-01-23T21:04:27.021Z,55.37
2023-01-23T21:06:55.574Z,55.41
2023-01-23T21:09:24.579Z,55.35
2023-01-23T21:11:53.996Z,54.73
2023-01-23T21:14:23.765Z,55.19
2023-01-23T21:16:51.925Z,55.25
2023-01-23T21:19:24.102Z,55.41
2023-01-23T21:21:52.510Z,55.78
2023-01-23T21:24:22.001Z,55.80
2023-01-23T21:26:51.103Z,55.64
2023-01-23T21:29:19.640Z,55.21
2023-01-23T21:31:47.810Z,55.39
2023-01-23T21:34:15.919Z,55.37
2023-01-23T21:36:45.397Z,55.35
2023-01-23T21:39:15.508Z,55.44
2023-01-23T21:41:43.651Z,55.72
2023-01-23T21:44:12.824Z,55.60
2023-01-23T21:46:41.121Z,55.16
2023-01-23T21:49:09.462Z,55.29
2023-01-23T21:51:37.843Z,55.47
2023-01-23T21:54:07.463Z,54.99
2023-01-23T21:56:35.550Z,55.21
2023-01-23T21:59:03.837Z,55.47
2023-01-23T22:01:36.074Z,55.57
2023-01-23T22:04:06.863Z,55.89
2023-01-23T22:06:36.598Z,55.97
2023-01-23T22:09:08.461Z,55.90
2023-01-23T22:11:37.300Z,55.70
2023-01-23T22:14:05.705Z,55.79
2023-01-23T22:16:48.116Z,56.14
2023-01-23T22:19:19.187Z,55.18
2023-01-23T22:21:47.359Z,55.67
2023-01-23T22:24:16.820Z,56.30
2023-01-23T22:26:45.244Z,56.02
2023-01-23T22:29:13.899Z,55.83
2023-01-23T22:31:42.583Z,55.67
2023-01-23T22:34:10.860Z,55.18
2023-01-23T22:36:38.972Z,55.31
2023-01-23T22:39:07.190Z,55.89
2023-01-23T22:41:36.637Z,56.15
2023-01-23T22:44:05.356Z,56.28
2023-01-23T22:46:33.338Z,56.44
2023-01-23T22:49:01.487Z,56.33
2023-01-23T22:51:30.013Z,56.15
2023-01-23T22:53:59.285Z,55.29
2023-01-23T22:56:28.351Z,56.26
2023-01-23T22:58:57.741Z,56.56
2023-01-23T23:01:27.249Z,56.55
2023-01-23T23:03:57.134Z,56.60
2023-01-23T23:06:25.694Z,56.21
2023-01-23T23:08:53.584Z,56.26
2023-01-23T23:11:23.685Z,56.53
2023-01-23T23:13:52.216Z,56.24
2023-01-23T23:16:23.123Z,56.49
2023-01-23T23:18:53.139Z,56.54
2023-01-23T23:21:23.617Z,56.26
2023-01-23T23:23:52.186Z,56.51
2023-01-23T23:26:20.854Z,56.63
2023-01-23T23:28:49.317Z,56.61
2023-01-23T23:31:17.389Z,56.26
2023-01-23T23:33:46.857Z,56.79
2023-01-23T23:36:16.890Z,56.36
2023-01-23T23:38:46.028Z,56.49
2023-01-23T23:41:16.188Z,56.23
2023-01-23T23:43:45.012Z,56.02
2023-01-23T23:46:14.477Z,56.32
2023-01-23T23:48:43.707Z,56.52
2023-01-23T23:51:15.433Z,57.16
2023-01-23T23:53:43.669Z,57.07
2023-01-23T23:56:19.666Z,56.70
2023-01-23T23:58:47.669Z,57.45
